sensor_id;sensor_type;location;lat;lon;timestamp;P1;durP1;ratioP1;P2;durP2;ratioP2
32838;SDS011;19182;41.820;12.808;2023-07-20T00:01:24;22.80;;;6.63;;
32838;SDS011;19182;41.820;12.808;2023-07-20T00:03:51;19.88;;;7.18;;
32838;SDS011;19182;41.820;12.808;2023-07-20T00:06:26;23.63;;;6.55;;
32838;SDS011;19182;41.820;12.808;2023-07-20T00:08:53;25.55;;;6.55;;
32838;SDS011;19182;41.820;12.808;2023-07-20T00:11:19;18.33;;;5.93;;
32838;SDS011;19182;41.820;12.808;2023-07-20T00:13:50;18.02;;;6.05;;
32838;SDS011;19182;41.820;12.808;2023-07-20T00:16:16;28.55;;;6.90;;
32838;SDS011;19182;41.820;12.808;2023-07-20T00:18:41;24.63;;;6.63;;
32838;SDS011;19182;41.820;12.808;2023-07-20T00:21:07;24.17;;;6.07;;
32838;SDS011;19182;41.820;12.808;2023-07-20T00:23:33;21.08;;;6.18;;
32838;SDS011;19182;41.820;12.808;2023-07-20T00:28:51;15.70;;;6.00;;
32838;SDS011;19182;41.820;12.808;2023-07-20T00:31:18;15.07;;;6.07;;
32838;SDS011;19182;41.820;12.808;2023-07-20T00:33:44;16.60;;;5.97;;
32838;SDS011;19182;41.820;12.808;2023-07-20T00:36:10;14.30;;;5.55;;
32838;SDS011;19182;41.820;12.808;2023-07-20T00:38:35;19.75;;;6.32;;
32838;SDS011;19182;41.820;12.808;2023-07-20T00:41:01;14.02;;;6.10;;
32838;SDS011;19182;41.820;12.808;2023-07-20T00:43:28;24.67;;;6.82;;
32838;SDS011;19182;41.820;12.808;2023-07-20T00:45:55;23.15;;;6.88;;
32838;SDS011;19182;41.820;12.808;2023-07-20T00:48:22;24.15;;;6.25;;
32838;SDS011;19182;41.820;12.808;2023-07-20T00:50:49;20.13;;;6.55;;
32838;SDS011;19182;41.820;12.808;2023-07-20T00:53:16;21.60;;;6.78;;
32838;SDS011;19182;41.820;12.808;2023-07-20T00:55:42;21.08;;;6.95;;
32838;SDS011;19182;41.820;12.808;2023-07-20T00:58:08;20.58;;;6.43;;
32838;SDS011;19182;41.820;12.808;2023-07-20T01:00:35;17.73;;;6.25;;
32838;SDS011;19182;41.820;12.808;2023-07-20T01:03:02;16.38;;;5.97;;
32838;SDS011;19182;41.820;12.808;2023-07-20T01:05:35;28.83;;;7.05;;
32838;SDS011;19182;41.820;12.808;2023-07-20T01:08:38;20.38;;;6.57;;
32838;SDS011;19182;41.820;12.808;2023-07-20T01:14:05;17.48;;;5.93;;
32838;SDS011;19182;41.820;12.808;2023-07-20T01:16:32;19.00;;;6.82;;
32838;SDS011;19182;41.820;12.808;2023-07-20T01:18:59;27.08;;;7.15;;
32838;SDS011;19182;41.820;12.808;2023-07-20T01:21:34;16.58;;;6.45;;
32838;SDS011;19182;41.820;12.808;2023-07-20T01:29:34;20.02;;;8.25;;
32838;SDS011;19182;41.820;12.808;2023-07-20T01:32:19;27.20;;;7.47;;
32838;SDS011;19182;41.820;12.808;2023-07-20T01:34:48;27.88;;;8.25;;
32838;SDS011;19182;41.820;12.808;2023-07-20T01:37:17;24.00;;;6.80;;
32838;SDS011;19182;41.820;12.808;2023-07-20T01:39:45;19.52;;;6.00;;
32838;SDS011;19182;41.820;12.808;2023-07-20T01:42:11;24.92;;;6.95;;
32838;SDS011;19182;41.820;12.808;2023-07-20T01:44:38;17.38;;;6.35;;
32838;SDS011;19182;41.820;12.808;2023-07-20T01:47:04;20.33;;;6.35;;
32838;SDS011;19182;41.820;12.808;2023-07-20T01:49:31;21.15;;;6.60;;
32838;SDS011;19182;41.820;12.808;2023-07-20T01:51:58;16.17;;;6.20;;
32838;SDS011;19182;41.820;12.808;2023-07-20T01:54:25;24.65;;;7.00;;
32838;SDS011;19182;41.820;12.808;2023-07-20T01:56:51;17.75;;;5.90;;
32838;SDS011;19182;41.820;12.808;2023-07-20T01:59:19;26.08;;;7.25;;
32838;SDS011;19182;41.820;12.808;2023-07-20T02:01:44;24.00;;;6.70;;
32838;SDS011;19182;41.820;12.808;2023-07-20T02:04:10;13.43;;;5.95;;
32838;SDS011;19182;41.820;12.808;2023-07-20T02:06:37;14.85;;;6.50;;
32838;SDS011;19182;41.820;12.808;2023-07-20T02:09:04;21.67;;;6.45;;
32838;SDS011;19182;41.820;12.808;2023-07-20T02:11:30;15.00;;;5.63;;
32838;SDS011;19182;41.820;12.808;2023-07-20T02:13:57;18.02;;;6.45;;
32838;SDS011;19182;41.820;12.808;2023-07-20T02:16:23;16.92;;;6.43;;
32838;SDS011;19182;41.820;12.808;2023-07-20T02:18:48;19.08;;;6.60;;
32838;SDS011;19182;41.820;12.808;2023-07-20T02:21:15;24.08;;;6.85;;
32838;SDS011;19182;41.820;12.808;2023-07-20T02:23:42;18.58;;;6.75;;
32838;SDS011;19182;41.820;12.808;2023-07-20T02:26:08;22.00;;;7.85;;
32838;SDS011;19182;41.820;12.808;2023-07-20T02:28:35;20.02;;;6.47;;
32838;SDS011;19182;41.820;12.808;2023-07-20T02:31:01;16.75;;;7.13;;
32838;SDS011;19182;41.820;12.808;2023-07-20T02:33:26;24.42;;;7.55;;
32838;SDS011;19182;41.820;12.808;2023-07-20T02:35:53;15.43;;;6.18;;
32838;SDS011;19182;41.820;12.808;2023-07-20T02:38:20;14.00;;;5.97;;
32838;SDS011;19182;41.820;12.808;2023-07-20T02:40:46;16.60;;;6.38;;
32838;SDS011;19182;41.820;12.808;2023-07-20T02:43:13;25.38;;;7.18;;
32838;SDS011;19182;41.820;12.808;2023-07-20T02:45:40;22.75;;;7.75;;
32838;SDS011;19182;41.820;12.808;2023-07-20T02:48:07;19.60;;;7.25;;
32838;SDS011;19182;41.820;12.808;2023-07-20T02:50:33;18.95;;;7.35;;
32838;SDS011;19182;41.820;12.808;2023-07-20T02:53:00;17.00;;;7.30;;
32838;SDS011;19182;41.820;12.808;2023-07-20T02:55:26;20.58;;;7.00;;
32838;SDS011;19182;41.820;12.808;2023-07-20T02:57:53;18.88;;;7.05;;
32838;SDS011;19182;41.820;12.808;2023-07-20T03:00:19;17.50;;;6.95;;
32838;SDS011;19182;41.820;12.808;2023-07-20T03:02:48;16.95;;;7.13;;
32838;SDS011;19182;41.820;12.808;2023-07-20T03:05:14;18.25;;;7.60;;
32838;SDS011;19182;41.820;12.808;2023-07-20T03:07:41;19.63;;;5.88;;
32838;SDS011;19182;41.820;12.808;2023-07-20T03:10:08;20.27;;;6.68;;
32838;SDS011;19182;41.820;12.808;2023-07-20T03:12:35;18.88;;;7.18;;
32838;SDS011;19182;41.820;12.808;2023-07-20T03:15:02;18.08;;;6.30;;
32838;SDS011;19182;41.820;12.808;2023-07-20T03:17:28;22.15;;;7.40;;
32838;SDS011;19182;41.820;12.808;2023-07-20T03:19:54;19.55;;;6.63;;
32838;SDS011;19182;41.820;12.808;2023-07-20T03:22:20;15.20;;;5.75;;
32838;SDS011;19182;41.820;12.808;2023-07-20T03:24:47;16.30;;;6.90;;
32838;SDS011;19182;41.820;12.808;2023-07-20T03:27:13;15.88;;;6.22;;
32838;SDS011;19182;41.820;12.808;2023-07-20T03:29:39;15.63;;;6.68;;
32838;SDS011;19182;41.820;12.808;2023-07-20T03:32:05;24.45;;;6.80;;
32838;SDS011;19182;41.820;12.808;2023-07-20T03:34:31;21.42;;;6.25;;
32838;SDS011;19182;41.820;12.808;2023-07-20T03:36:57;24.10;;;6.40;;
32838;SDS011;19182;41.820;12.808;2023-07-20T03:39:24;24.38;;;6.32;;
32838;SDS011;19182;41.820;12.808;2023-07-20T03:41:51;25.85;;;6.95;;
32838;SDS011;19182;41.820;12.808;2023-07-20T03:44:16;19.35;;;6.57;;
32838;SDS011;19182;41.820;12.808;2023-07-20T03:46:44;27.88;;;6.60;;
32838;SDS011;19182;41.820;12.808;2023-07-20T03:49:11;16.52;;;5.80;;
32838;SDS011;19182;41.820;12.808;2023-07-20T03:51:38;23.20;;;6.30;;
32838;SDS011;19182;41.820;12.808;2023-07-20T03:54:04;30.67;;;6.80;;
32838;SDS011;19182;41.820;12.808;2023-07-20T03:56:30;19.35;;;6.22;;
32838;SDS011;19182;41.820;12.808;2023-07-20T03:59:00;21.08;;;5.50;;
32838;SDS011;19182;41.820;12.808;2023-07-20T04:01:26;18.35;;;5.55;;
32838;SDS011;19182;41.820;12.808;2023-07-20T04:03:53;28.38;;;6.32;;
32838;SDS011;19182;41.820;12.808;2023-07-20T04:06:20;23.13;;;6.32;;
32838;SDS011;19182;41.820;12.808;2023-07-20T04:08:47;79.25;;;11.25;;
32838;SDS011;19182;41.820;12.808;2023-07-20T04:11:14;256.27;;;28.65;;
32838;SDS011;19182;41.820;12.808;2023-07-20T04:13:40;250.38;;;28.85;;
32838;SDS011;19182;41.820;12.808;2023-07-20T04:16:07;175.60;;;21.70;;
32838;SDS011;19182;41.820;12.808;2023-07-20T04:18:33;105.72;;;15.05;;
32838;SDS011;19182;41.820;12.808;2023-07-20T04:20:58;147.85;;;20.98;;
32838;SDS011;19182;41.820;12.808;2023-07-20T04:23:24;262.60;;;30.60;;
32838;SDS011;19182;41.820;12.808;2023-07-20T04:25:51;248.02;;;27.90;;
32838;SDS011;19182;41.820;12.808;2023-07-20T04:28:19;168.13;;;20.10;;
32838;SDS011;19182;41.820;12.808;2023-07-20T04:30:44;82.32;;;12.50;;
32838;SDS011;19182;41.820;12.808;2023-07-20T04:33:13;47.03;;;9.15;;
32838;SDS011;19182;41.820;12.808;2023-07-20T04:35:51;43.20;;;8.52;;
32838;SDS011;19182;41.820;12.808;2023-07-20T04:38:18;35.20;;;8.80;;
32838;SDS011;19182;41.820;12.808;2023-07-20T04:40:45;78.57;;;13.85;;
32838;SDS011;19182;41.820;12.808;2023-07-20T04:43:11;199.40;;;25.40;;
32838;SDS011;19182;41.820;12.808;2023-07-20T04:45:38;165.43;;;24.00;;
32838;SDS011;19182;41.820;12.808;2023-07-20T04:48:06;137.10;;;20.35;;
32838;SDS011;19182;41.820;12.808;2023-07-20T04:50:36;192.70;;;23.63;;
32838;SDS011;19182;41.820;12.808;2023-07-20T04:53:02;181.45;;;26.35;;
32838;SDS011;19182;41.820;12.808;2023-07-20T04:55:30;184.15;;;27.88;;
32838;SDS011;19182;41.820;12.808;2023-07-20T04:57:58;112.10;;;21.05;;
32838;SDS011;19182;41.820;12.808;2023-07-20T05:00:25;168.50;;;24.67;;
32838;SDS011;19182;41.820;12.808;2023-07-20T05:02:51;189.27;;;25.88;;
32838;SDS011;19182;41.820;12.808;2023-07-20T05:05:17;173.02;;;23.30;;
32838;SDS011;19182;41.820;12.808;2023-07-20T05:07:43;150.52;;;22.05;;
32838;SDS011;19182;41.820;12.808;2023-07-20T05:10:09;172.70;;;21.70;;
32838;SDS011;19182;41.820;12.808;2023-07-20T05:12:36;109.55;;;14.88;;
32838;SDS011;19182;41.820;12.808;2023-07-20T05:15:02;131.48;;;17.10;;
32838;SDS011;19182;41.820;12.808;2023-07-20T05:17:29;210.93;;;27.65;;
32838;SDS011;19182;41.820;12.808;2023-07-20T05:19:55;166.35;;;20.38;;
32838;SDS011;19182;41.820;12.808;2023-07-20T05:22:21;178.52;;;22.80;;
32838;SDS011;19182;41.820;12.808;2023-07-20T05:24:46;150.65;;;19.30;;
32838;SDS011;19182;41.820;12.808;2023-07-20T05:27:12;150.00;;;19.42;;
32838;SDS011;19182;41.820;12.808;2023-07-20T05:29:43;144.98;;;18.10;;
32838;SDS011;19182;41.820;12.808;2023-07-20T05:32:13;150.15;;;17.75;;
32838;SDS011;19182;41.820;12.808;2023-07-20T05:34:39;150.18;;;18.08;;
32838;SDS011;19182;41.820;12.808;2023-07-20T05:37:05;123.13;;;20.02;;
32838;SDS011;19182;41.820;12.808;2023-07-20T05:39:33;109.10;;;18.08;;
32838;SDS011;19182;41.820;12.808;2023-07-20T05:41:59;112.95;;;19.52;;
32838;SDS011;19182;41.820;12.808;2023-07-20T05:44:25;118.13;;;19.92;;
32838;SDS011;19182;41.820;12.808;2023-07-20T05:46:50;93.47;;;16.73;;
32838;SDS011;19182;41.820;12.808;2023-07-20T05:49:16;40.60;;;11.38;;
32838;SDS011;19182;41.820;12.808;2023-07-20T05:51:43;36.33;;;9.63;;
32838;SDS011;19182;41.820;12.808;2023-07-20T05:54:09;26.35;;;8.65;;
32838;SDS011;19182;41.820;12.808;2023-07-20T05:56:36;26.23;;;7.63;;
32838;SDS011;19182;41.820;12.808;2023-07-20T05:59:01;22.70;;;7.55;;
32838;SDS011;19182;41.820;12.808;2023-07-20T06:01:27;21.45;;;7.30;;
32838;SDS011;19182;41.820;12.808;2023-07-20T06:03:59;20.42;;;6.60;;
32838;SDS011;19182;41.820;12.808;2023-07-20T06:06:26;29.48;;;7.13;;
32838;SDS011;19182;41.820;12.808;2023-07-20T06:08:51;17.20;;;6.80;;
32838;SDS011;19182;41.820;12.808;2023-07-20T06:11:18;19.48;;;6.93;;
32838;SDS011;19182;41.820;12.808;2023-07-20T06:13:45;18.15;;;6.47;;
32838;SDS011;19182;41.820;12.808;2023-07-20T06:16:12;21.98;;;6.25;;
32838;SDS011;19182;41.820;12.808;2023-07-20T06:18:39;24.15;;;7.22;;
32838;SDS011;19182;41.820;12.808;2023-07-20T06:21:06;21.50;;;7.28;;
32838;SDS011;19182;41.820;12.808;2023-07-20T06:23:32;21.80;;;6.65;;
32838;SDS011;19182;41.820;12.808;2023-07-20T06:25:58;18.00;;;6.55;;
32838;SDS011;19182;41.820;12.808;2023-07-20T06:28:25;17.58;;;6.15;;
32838;SDS011;19182;41.820;12.808;2023-07-20T06:30:51;22.10;;;6.95;;
32838;SDS011;19182;41.820;12.808;2023-07-20T06:33:23;18.67;;;6.22;;
32838;SDS011;19182;41.820;12.808;2023-07-20T06:35:50;28.15;;;7.25;;
32838;SDS011;19182;41.820;12.808;2023-07-20T06:38:18;24.20;;;7.47;;
32838;SDS011;19182;41.820;12.808;2023-07-20T06:40:45;20.52;;;6.43;;
32838;SDS011;19182;41.820;12.808;2023-07-20T06:43:12;24.15;;;6.75;;
32838;SDS011;19182;41.820;12.808;2023-07-20T06:45:38;25.38;;;6.68;;
32838;SDS011;19182;41.820;12.808;2023-07-20T06:48:05;24.52;;;6.45;;
32838;SDS011;19182;41.820;12.808;2023-07-20T06:50:31;19.55;;;5.95;;
32838;SDS011;19182;41.820;12.808;2023-07-20T06:52:58;26.27;;;6.15;;
32838;SDS011;19182;41.820;12.808;2023-07-20T06:55:26;18.80;;;5.88;;
32838;SDS011;19182;41.820;12.808;2023-07-20T06:57:51;23.20;;;5.15;;
32838;SDS011;19182;41.820;12.808;2023-07-20T07:00:17;21.38;;;5.28;;
32838;SDS011;19182;41.820;12.808;2023-07-20T07:02:43;18.25;;;5.40;;
32838;SDS011;19182;41.820;12.808;2023-07-20T07:05:10;26.60;;;6.63;;
32838;SDS011;19182;41.820;12.808;2023-07-20T07:07:36;18.13;;;6.35;;
32838;SDS011;19182;41.820;12.808;2023-07-20T07:10:03;21.90;;;5.68;;
32838;SDS011;19182;41.820;12.808;2023-07-20T07:12:30;22.55;;;5.85;;
32838;SDS011;19182;41.820;12.808;2023-07-20T07:14:57;18.67;;;5.28;;
32838;SDS011;19182;41.820;12.808;2023-07-20T07:17:24;21.83;;;5.97;;
32838;SDS011;19182;41.820;12.808;2023-07-20T07:19:50;19.58;;;4.95;;
32838;SDS011;19182;41.820;12.808;2023-07-20T07:22:18;21.25;;;5.13;;
32838;SDS011;19182;41.820;12.808;2023-07-20T07:24:46;20.52;;;5.60;;
32838;SDS011;19182;41.820;12.808;2023-07-20T07:27:12;25.38;;;6.13;;
32838;SDS011;19182;41.820;12.808;2023-07-20T07:29:38;21.63;;;6.45;;
32838;SDS011;19182;41.820;12.808;2023-07-20T07:32:04;13.13;;;4.57;;
32838;SDS011;19182;41.820;12.808;2023-07-20T07:34:30;25.55;;;5.45;;
32838;SDS011;19182;41.820;12.808;2023-07-20T07:36:59;16.75;;;6.00;;
32838;SDS011;19182;41.820;12.808;2023-07-20T07:39:26;25.60;;;5.40;;
32838;SDS011;19182;41.820;12.808;2023-07-20T07:41:51;27.33;;;5.88;;
32838;SDS011;19182;41.820;12.808;2023-07-20T07:44:17;28.63;;;5.75;;
32838;SDS011;19182;41.820;12.808;2023-07-20T07:46:43;18.98;;;6.20;;
32838;SDS011;19182;41.820;12.808;2023-07-20T07:49:09;28.67;;;6.35;;
32838;SDS011;19182;41.820;12.808;2023-07-20T07:51:34;19.15;;;5.53;;
32838;SDS011;19182;41.820;12.808;2023-07-20T07:54:01;17.70;;;6.00;;
32838;SDS011;19182;41.820;12.808;2023-07-20T07:56:29;20.90;;;5.60;;
32838;SDS011;19182;41.820;12.808;2023-07-20T07:58:56;20.77;;;5.25;;
32838;SDS011;19182;41.820;12.808;2023-07-20T08:01:21;30.10;;;6.63;;
32838;SDS011;19182;41.820;12.808;2023-07-20T08:03:47;27.67;;;6.55;;
32838;SDS011;19182;41.820;12.808;2023-07-20T08:06:13;31.02;;;5.63;;
32838;SDS011;19182;41.820;12.808;2023-07-20T08:08:39;10.77;;;4.70;;
32838;SDS011;19182;41.820;12.808;2023-07-20T08:11:05;21.95;;;5.25;;
32838;SDS011;19182;41.820;12.808;2023-07-20T08:13:31;22.52;;;5.70;;
32838;SDS011;19182;41.820;12.808;2023-07-20T08:15:58;19.00;;;5.05;;
32838;SDS011;19182;41.820;12.808;2023-07-20T08:18:24;20.63;;;4.90;;
32838;SDS011;19182;41.820;12.808;2023-07-20T08:20:49;20.55;;;5.32;;
32838;SDS011;19182;41.820;12.808;2023-07-20T08:23:15;23.60;;;5.32;;
32838;SDS011;19182;41.820;12.808;2023-07-20T08:25:41;17.30;;;5.50;;
32838;SDS011;19182;41.820;12.808;2023-07-20T08:28:15;15.68;;;4.53;;
32838;SDS011;19182;41.820;12.808;2023-07-20T08:33:07;22.88;;;5.20;;
32838;SDS011;19182;41.820;12.808;2023-07-20T08:35:38;21.40;;;4.93;;
32838;SDS011;19182;41.820;12.808;2023-07-20T08:38:05;12.77;;;4.40;;
32838;SDS011;19182;41.820;12.808;2023-07-20T08:40:32;20.60;;;4.85;;
32838;SDS011;19182;41.820;12.808;2023-07-20T08:43:04;20.67;;;5.50;;
32838;SDS011;19182;41.820;12.808;2023-07-20T08:45:30;20.38;;;5.70;;
32838;SDS011;19182;41.820;12.808;2023-07-20T08:48:00;20.02;;;5.38;;
32838;SDS011;19182;41.820;12.808;2023-07-20T08:50:27;21.70;;;4.68;;
32838;SDS011;19182;41.820;12.808;2023-07-20T08:52:55;14.53;;;5.03;;
32838;SDS011;19182;41.820;12.808;2023-07-20T08:55:23;15.03;;;5.13;;
32838;SDS011;19182;41.820;12.808;2023-07-20T08:57:53;19.90;;;4.80;;
32838;SDS011;19182;41.820;12.808;2023-07-20T09:00:21;26.63;;;4.85;;
32838;SDS011;19182;41.820;12.808;2023-07-20T09:02:54;18.05;;;5.47;;
32838;SDS011;19182;41.820;12.808;2023-07-20T09:05:23;24.25;;;5.78;;
32838;SDS011;19182;41.820;12.808;2023-07-20T09:07:51;23.63;;;5.25;;
32838;SDS011;19182;41.820;12.808;2023-07-20T09:10:22;21.27;;;5.00;;
32838;SDS011;19182;41.820;12.808;2023-07-20T09:12:49;23.23;;;5.35;;
32838;SDS011;19182;41.820;12.808;2023-07-20T09:15:15;27.98;;;5.22;;
32838;SDS011;19182;41.820;12.808;2023-07-20T09:17:48;16.05;;;5.18;;
32838;SDS011;19182;41.820;12.808;2023-07-20T09:20:15;20.20;;;4.20;;
32838;SDS011;19182;41.820;12.808;2023-07-20T09:22:45;15.35;;;4.93;;
32838;SDS011;19182;41.820;12.808;2023-07-20T09:27:40;16.48;;;4.53;;
32838;SDS011;19182;41.820;12.808;2023-07-20T09:30:07;22.42;;;4.90;;
32838;SDS011;19182;41.820;12.808;2023-07-20T09:32:40;23.15;;;5.88;;
32838;SDS011;19182;41.820;12.808;2023-07-20T09:35:16;24.48;;;5.63;;
32838;SDS011;19182;41.820;12.808;2023-07-20T09:37:50;23.48;;;5.15;;
32838;SDS011;19182;41.820;12.808;2023-07-20T09:42:50;20.77;;;6.28;;
32838;SDS011;19182;41.820;12.808;2023-07-20T09:45:18;19.23;;;5.88;;
32838;SDS011;19182;41.820;12.808;2023-07-20T09:47:45;19.92;;;5.70;;
32838;SDS011;19182;41.820;12.808;2023-07-20T09:50:11;17.48;;;5.70;;
32838;SDS011;19182;41.820;12.808;2023-07-20T09:52:40;27.38;;;6.35;;
32838;SDS011;19182;41.820;12.808;2023-07-20T09:55:08;26.58;;;6.05;;
32838;SDS011;19182;41.820;12.808;2023-07-20T09:57:36;17.65;;;6.35;;
32838;SDS011;19182;41.820;12.808;2023-07-20T10:00:06;22.92;;;6.25;;
32838;SDS011;19182;41.820;12.808;2023-07-20T10:02:43;21.10;;;5.35;;
32838;SDS011;19182;41.820;12.808;2023-07-20T10:05:13;15.35;;;6.03;;
32838;SDS011;19182;41.820;12.808;2023-07-20T10:07:47;11.63;;;5.43;;
32838;SDS011;19182;41.820;12.808;2023-07-20T10:10:18;18.63;;;6.15;;
32838;SDS011;19182;41.820;12.808;2023-07-20T10:12:46;23.23;;;6.40;;
32838;SDS011;19182;41.820;12.808;2023-07-20T10:15:20;18.13;;;6.88;;
32838;SDS011;19182;41.820;12.808;2023-07-20T10:20:31;18.67;;;6.07;;
32838;SDS011;19182;41.820;12.808;2023-07-20T10:22:58;23.83;;;5.90;;
32838;SDS011;19182;41.820;12.808;2023-07-20T10:25:25;15.85;;;5.40;;
32838;SDS011;19182;41.820;12.808;2023-07-20T10:27:52;16.83;;;6.50;;
32838;SDS011;19182;41.820;12.808;2023-07-20T10:30:20;21.77;;;6.00;;
32838;SDS011;19182;41.820;12.808;2023-07-20T10:32:46;20.90;;;6.50;;
32838;SDS011;19182;41.820;12.808;2023-07-20T10:35:16;19.40;;;5.72;;
32838;SDS011;19182;41.820;12.808;2023-07-20T10:37:56;14.55;;;6.25;;
32838;SDS011;19182;41.820;12.808;2023-07-20T10:40:33;22.17;;;5.77;;
32838;SDS011;19182;41.820;12.808;2023-07-20T10:43:03;11.20;;;5.03;;
32838;SDS011;19182;41.820;12.808;2023-07-20T10:48:25;19.08;;;5.05;;
32838;SDS011;19182;41.820;12.808;2023-07-20T10:53:35;16.25;;;5.38;;
32838;SDS011;19182;41.820;12.808;2023-07-20T10:56:06;23.92;;;5.85;;
32838;SDS011;19182;41.820;12.808;2023-07-20T10:58:33;15.98;;;5.72;;
32838;SDS011;19182;41.820;12.808;2023-07-20T11:01:03;19.80;;;5.85;;
32838;SDS011;19182;41.820;12.808;2023-07-20T11:03:35;16.58;;;5.68;;
32838;SDS011;19182;41.820;12.808;2023-07-20T11:08:56;19.35;;;5.65;;
32838;SDS011;19182;41.820;12.808;2023-07-20T11:11:42;16.27;;;5.78;;
32838;SDS011;19182;41.820;12.808;2023-07-20T11:14:10;18.13;;;5.75;;
32838;SDS011;19182;41.820;12.808;2023-07-20T11:16:47;15.00;;;6.20;;
32838;SDS011;19182;41.820;12.808;2023-07-20T11:19:15;19.50;;;5.75;;
32838;SDS011;19182;41.820;12.808;2023-07-20T11:21:45;21.48;;;5.75;;
32838;SDS011;19182;41.820;12.808;2023-07-20T11:24:16;17.38;;;5.95;;
32838;SDS011;19182;41.820;12.808;2023-07-20T11:29:13;14.50;;;5.55;;
32838;SDS011;19182;41.820;12.808;2023-07-20T11:31:40;22.77;;;5.82;;
32838;SDS011;19182;41.820;12.808;2023-07-20T11:34:09;16.77;;;5.70;;
32838;SDS011;19182;41.820;12.808;2023-07-20T11:36:37;23.77;;;6.20;;
32838;SDS011;19182;41.820;12.808;2023-07-20T11:39:08;14.40;;;5.43;;
32838;SDS011;19182;41.820;12.808;2023-07-20T11:41:35;20.92;;;5.63;;
32838;SDS011;19182;41.820;12.808;2023-07-20T11:44:02;16.70;;;6.30;;
32838;SDS011;19182;41.820;12.808;2023-07-20T11:46:28;17.45;;;5.60;;
32838;SDS011;19182;41.820;12.808;2023-07-20T11:48:58;22.75;;;6.00;;
32838;SDS011;19182;41.820;12.808;2023-07-20T11:51:25;20.35;;;5.75;;
32838;SDS011;19182;41.820;12.808;2023-07-20T11:53:53;19.45;;;6.25;;
32838;SDS011;19182;41.820;12.808;2023-07-20T11:56:19;19.38;;;5.43;;
32838;SDS011;19182;41.820;12.808;2023-07-20T11:58:45;21.10;;;6.07;;
32838;SDS011;19182;41.820;12.808;2023-07-20T12:01:14;21.08;;;5.55;;
32838;SDS011;19182;41.820;12.808;2023-07-20T12:03:44;16.27;;;5.38;;
32838;SDS011;19182;41.820;12.808;2023-07-20T12:06:11;17.83;;;5.22;;
32838;SDS011;19182;41.820;12.808;2023-07-20T12:08:38;19.02;;;6.07;;
32838;SDS011;19182;41.820;12.808;2023-07-20T12:11:05;23.20;;;5.88;;
32838;SDS011;19182;41.820;12.808;2023-07-20T12:13:36;19.80;;;6.10;;
32838;SDS011;19182;41.820;12.808;2023-07-20T12:16:08;20.35;;;5.78;;
32838;SDS011;19182;41.820;12.808;2023-07-20T12:18:39;18.65;;;5.30;;
32838;SDS011;19182;41.820;12.808;2023-07-20T12:21:05;24.75;;;6.55;;
32838;SDS011;19182;41.820;12.808;2023-07-20T12:23:39;20.13;;;5.43;;
32838;SDS011;19182;41.820;12.808;2023-07-20T12:26:09;19.13;;;5.82;;
32838;SDS011;19182;41.820;12.808;2023-07-20T12:28:38;23.85;;;5.82;;
32838;SDS011;19182;41.820;12.808;2023-07-20T12:31:08;11.82;;;4.75;;
32838;SDS011;19182;41.820;12.808;2023-07-20T12:33:35;21.58;;;5.53;;
32838;SDS011;19182;41.820;12.808;2023-07-20T12:38:31;25.30;;;5.60;;
32838;SDS011;19182;41.820;12.808;2023-07-20T12:40:57;15.23;;;5.07;;
32838;SDS011;19182;41.820;12.808;2023-07-20T12:43:23;20.95;;;5.57;;
32838;SDS011;19182;41.820;12.808;2023-07-20T12:45:49;20.40;;;5.35;;
32838;SDS011;19182;41.820;12.808;2023-07-20T12:48:15;18.05;;;5.78;;
32838;SDS011;19182;41.820;12.808;2023-07-20T12:50:42;12.90;;;5.28;;
32838;SDS011;19182;41.820;12.808;2023-07-20T12:53:09;21.52;;;6.05;;
32838;SDS011;19182;41.820;12.808;2023-07-20T12:55:37;22.35;;;5.55;;
32838;SDS011;19182;41.820;12.808;2023-07-20T12:58:04;20.43;;;5.00;;
32838;SDS011;19182;41.820;12.808;2023-07-20T13:00:30;23.05;;;5.28;;
32838;SDS011;19182;41.820;12.808;2023-07-20T13:02:57;23.83;;;5.82;;
32838;SDS011;19182;41.820;12.808;2023-07-20T13:05:23;17.63;;;5.65;;
32838;SDS011;19182;41.820;12.808;2023-07-20T13:07:50;16.87;;;5.40;;
32838;SDS011;19182;41.820;12.808;2023-07-20T13:10:16;16.88;;;4.93;;
32838;SDS011;19182;41.820;12.808;2023-07-20T13:12:43;16.33;;;5.57;;
32838;SDS011;19182;41.820;12.808;2023-07-20T13:15:10;24.35;;;6.30;;
32838;SDS011;19182;41.820;12.808;2023-07-20T13:17:36;18.77;;;5.30;;
32838;SDS011;19182;41.820;12.808;2023-07-20T13:20:06;20.00;;;5.53;;
32838;SDS011;19182;41.820;12.808;2023-07-20T13:22:35;24.33;;;5.53;;
32838;SDS011;19182;41.820;12.808;2023-07-20T13:25:01;13.73;;;5.32;;
32838;SDS011;19182;41.820;12.808;2023-07-20T13:27:27;15.82;;;5.55;;
32838;SDS011;19182;41.820;12.808;2023-07-20T13:29:55;16.27;;;5.47;;
32838;SDS011;19182;41.820;12.808;2023-07-20T13:32:21;16.63;;;5.07;;
32838;SDS011;19182;41.820;12.808;2023-07-20T13:34:47;18.50;;;5.70;;
32838;SDS011;19182;41.820;12.808;2023-07-20T13:37:13;24.33;;;5.43;;
32838;SDS011;19182;41.820;12.808;2023-07-20T13:39:43;20.58;;;5.50;;
32838;SDS011;19182;41.820;12.808;2023-07-20T13:42:09;14.95;;;6.03;;
32838;SDS011;19182;41.820;12.808;2023-07-20T13:44:37;13.20;;;5.88;;
32838;SDS011;19182;41.820;12.808;2023-07-20T13:47:03;17.85;;;5.50;;
32838;SDS011;19182;41.820;12.808;2023-07-20T13:49:32;18.60;;;5.75;;
32838;SDS011;19182;41.820;12.808;2023-07-20T13:51:59;16.30;;;5.95;;
32838;SDS011;19182;41.820;12.808;2023-07-20T13:54:25;12.45;;;6.00;;
32838;SDS011;19182;41.820;12.808;2023-07-20T13:56:51;24.48;;;6.65;;
32838;SDS011;19182;41.820;12.808;2023-07-20T13:59:17;16.65;;;6.03;;
32838;SDS011;19182;41.820;12.808;2023-07-20T14:01:44;26.75;;;5.95;;
32838;SDS011;19182;41.820;12.808;2023-07-20T14:04:09;17.33;;;6.07;;
32838;SDS011;19182;41.820;12.808;2023-07-20T14:06:35;14.35;;;6.05;;
32838;SDS011;19182;41.820;12.808;2023-07-20T14:09:02;22.15;;;6.38;;
32838;SDS011;19182;41.820;12.808;2023-07-20T14:11:28;15.40;;;6.18;;
32838;SDS011;19182;41.820;12.808;2023-07-20T14:13:54;16.42;;;6.55;;
32838;SDS011;19182;41.820;12.808;2023-07-20T14:16:23;17.88;;;5.95;;
32838;SDS011;19182;41.820;12.808;2023-07-20T14:18:49;14.70;;;5.60;;
32838;SDS011;19182;41.820;12.808;2023-07-20T14:21:15;16.08;;;5.82;;
32838;SDS011;19182;41.820;12.808;2023-07-20T14:23:44;16.08;;;5.90;;
32838;SDS011;19182;41.820;12.808;2023-07-20T14:26:14;15.27;;;5.82;;
32838;SDS011;19182;41.820;12.808;2023-07-20T14:28:44;16.52;;;5.95;;
32838;SDS011;19182;41.820;12.808;2023-07-20T14:33:37;19.00;;;6.18;;
32838;SDS011;19182;41.820;12.808;2023-07-20T14:36:03;14.25;;;6.00;;
32838;SDS011;19182;41.820;12.808;2023-07-20T14:38:30;15.70;;;6.18;;
32838;SDS011;19182;41.820;12.808;2023-07-20T14:40:56;16.35;;;5.93;;
32838;SDS011;19182;41.820;12.808;2023-07-20T14:43:23;15.25;;;6.50;;
32838;SDS011;19182;41.820;12.808;2023-07-20T14:45:49;22.40;;;6.68;;
32838;SDS011;19182;41.820;12.808;2023-07-20T14:48:15;20.13;;;6.43;;
32838;SDS011;19182;41.820;12.808;2023-07-20T14:50:40;18.42;;;5.95;;
32838;SDS011;19182;41.820;12.808;2023-07-20T14:53:10;14.10;;;5.22;;
32838;SDS011;19182;41.820;12.808;2023-07-20T14:55:37;19.27;;;5.40;;
32838;SDS011;19182;41.820;12.808;2023-07-20T14:58:04;16.98;;;5.45;;